createdAt,value
2018-02-23T00:02:00.698Z,78.10
2018-02-23T00:04:28.377Z,70.23
2018-02-23T00:06:56.549Z,66.50
2018-02-23T00:09:24.062Z,72.73
2018-02-23T00:11:51.744Z,73.77
2018-02-23T00:14:19.362Z,72.87
2018-02-23T00:16:46.980Z,74.60
2018-02-23T00:19:14.659Z,71.73
2018-02-23T00:21:42.310Z,77.07
2018-02-23T00:24:09.910Z,76.07
2018-02-23T00:26:37.582Z,81.10
2018-02-23T00:29:05.217Z,72.37
2018-02-23T00:31:32.834Z,77.30
2018-02-23T00:34:00.497Z,75.00
2018-02-23T00:36:28.122Z,74.27
2018-02-23T00:38:55.735Z,78.67
2018-02-23T00:41:23.410Z,82.13
2018-02-23T00:43:51.045Z,71.97
2018-02-23T00:46:18.691Z,78.03
2018-02-23T00:48:46.376Z,79.70
2018-02-23T00:51:14.006Z,77.47
2018-02-23T00:53:41.648Z,77.83
2018-02-23T00:56:09.346Z,74.47
2018-02-23T00:58:36.990Z,77.27
2018-02-23T01:01:04.623Z,76.70
2018-02-23T01:03:32.309Z,70.77
2018-02-23T01:05:59.943Z,72.00
2018-02-23T01:08:27.570Z,79.90
2018-02-23T01:10:55.251Z,78.90
2018-02-23T01:13:22.883Z,70.80
2018-02-23T01:15:50.538Z,74.43
2018-02-23T01:18:18.223Z,79.03
2018-02-23T01:20:45.847Z,75.77
2018-02-23T01:23:13.491Z,80.37
2018-02-23T01:25:41.191Z,78.67
2018-02-23T01:30:47.966Z,90.10
2018-02-23T01:33:15.612Z,85.80
2018-02-23T01:35:44.117Z,78.47
2018-02-23T01:38:11.796Z,75.43
2018-02-23T01:40:39.437Z,81.07
2018-02-23T01:43:07.068Z,82.83
2018-02-23T01:45:34.752Z,80.43
2018-02-23T01:48:02.386Z,76.77
2018-02-23T01:50:30.016Z,82.57
2018-02-23T01:52:57.702Z,77.60
2018-02-23T01:55:25.333Z,80.97
2018-02-23T01:57:52.965Z,82.93
2018-02-23T02:00:20.634Z,84.03
2018-02-23T02:02:49.981Z,75.63
2018-02-23T02:05:17.617Z,75.57
2018-02-23T02:07:45.325Z,78.90
2018-02-23T02:10:12.962Z,87.13
2018-02-23T02:12:40.590Z,79.17
2018-02-23T02:15:08.280Z,81.27
2018-02-23T02:17:35.898Z,86.90
2018-02-23T02:20:03.534Z,90.93
2018-02-23T02:24:55.051Z,79.07
2018-02-23T02:27:22.677Z,88.20
2018-02-23T02:29:50.304Z,86.00
2018-02-23T02:32:17.988Z,86.40
2018-02-23T02:34:45.616Z,79.13
2018-02-23T02:37:13.249Z,80.63
2018-02-23T02:39:40.932Z,78.30
2018-02-23T02:42:08.565Z,85.73
2018-02-23T02:44:36.188Z,91.47
2018-02-23T02:47:03.880Z,83.63
2018-02-23T02:49:31.509Z,74.03
2018-02-23T02:51:59.144Z,83.30
2018-02-23T02:54:26.829Z,79.90
2018-02-23T02:56:54.476Z,82.13
2018-02-23T02:59:22.131Z,83.23
2018-02-23T03:01:49.814Z,84.87
2018-02-23T03:04:17.443Z,79.30
2018-02-23T03:06:45.068Z,77.83
2018-02-23T03:09:12.786Z,75.83
2018-02-23T03:11:40.404Z,86.07
2018-02-23T03:14:08.037Z,82.40
2018-02-23T03:16:35.722Z,76.00
2018-02-23T03:19:03.355Z,87.13
2018-02-23T03:21:30.979Z,88.50
2018-02-23T03:23:58.670Z,85.03
2018-02-23T03:26:26.299Z,85.83
2018-02-23T03:28:53.942Z,79.03
2018-02-23T03:31:21.697Z,85.67
2018-02-23T03:33:49.321Z,77.97
2018-02-23T03:36:16.950Z,86.87
2018-02-23T03:38:45.991Z,80.20
2018-02-23T03:41:13.623Z,89.70
2018-02-23T03:43:41.256Z,83.57
2018-02-23T03:46:08.989Z,80.73
2018-02-23T03:51:15.789Z,89.28
2018-02-23T03:53:43.414Z,89.87
2018-02-23T03:56:11.042Z,78.83
2018-02-23T03:58:38.997Z,79.30
2018-02-23T04:01:06.620Z,86.93
2018-02-23T04:03:34.268Z,83.87
2018-02-23T04:06:01.962Z,87.53
2018-02-23T04:08:29.593Z,85.37
2018-02-23T04:11:00.300Z,87.27
2018-02-23T04:13:27.984Z,77.93
2018-02-23T04:15:55.610Z,84.87
2018-02-23T04:18:23.232Z,75.80
2018-02-23T04:20:52.916Z,80.13
2018-02-23T04:23:20.557Z,79.93
2018-02-23T04:25:48.166Z,79.17
2018-02-23T04:28:15.855Z,81.97
2018-02-23T04:30:43.485Z,82.20
2018-02-23T04:33:11.111Z,81.50
2018-02-23T04:35:38.809Z,81.83
2018-02-23T04:38:06.438Z,81.70
2018-02-23T04:40:34.125Z,86.77
2018-02-23T04:43:01.770Z,90.37
2018-02-23T04:45:29.407Z,85.63
2018-02-23T04:47:57.040Z,83.43
2018-02-23T04:50:24.728Z,81.77
2018-02-23T04:52:52.365Z,86.17
2018-02-23T04:55:19.992Z,80.17
2018-02-23T04:57:47.677Z,82.30
2018-02-23T05:00:15.312Z,82.73
2018-02-23T05:05:22.151Z,82.82
2018-02-23T05:07:51.534Z,82.37
2018-02-23T05:10:19.174Z,77.80
2018-02-23T05:12:46.866Z,78.87
2018-02-23T05:15:14.496Z,79.40
2018-02-23T05:17:42.140Z,77.47
2018-02-23T05:20:09.828Z,76.67
2018-02-23T05:22:37.460Z,82.67
2018-02-23T05:25:05.098Z,77.87
2018-02-23T05:27:32.788Z,76.43
2018-02-23T05:30:00.419Z,76.13
2018-02-23T05:32:28.051Z,76.60
2018-02-23T05:34:55.728Z,79.03
2018-02-23T05:37:23.387Z,82.90
2018-02-23T05:39:51.031Z,83.33
2018-02-23T05:42:18.712Z,77.93
2018-02-23T05:44:46.341Z,76.73
2018-02-23T05:47:13.969Z,71.70
2018-02-23T05:49:41.661Z,79.80
2018-02-23T05:52:09.276Z,76.63
2018-02-23T05:54:36.901Z,75.30
2018-02-23T05:57:04.575Z,82.33
2018-02-23T05:59:32.205Z,79.37
2018-02-23T06:01:59.874Z,89.00
2018-02-23T06:04:28.504Z,80.47
2018-02-23T06:06:56.140Z,84.53
2018-02-23T06:09:24.001Z,77.17
2018-02-23T06:11:51.735Z,84.20
2018-02-23T06:14:19.331Z,89.70
2018-02-23T06:16:46.983Z,84.63
2018-02-23T06:21:56.070Z,93.22
2018-02-23T06:24:24.208Z,91.57
2018-02-23T06:26:51.870Z,85.17
2018-02-23T06:29:19.510Z,94.83
2018-02-23T06:31:47.198Z,86.70
2018-02-23T06:34:14.842Z,93.73
2018-02-23T06:36:42.485Z,111.63
2018-02-23T06:39:10.182Z,117.37
2018-02-23T06:41:37.828Z,116.77
2018-02-23T06:44:05.472Z,118.07
2018-02-23T06:46:33.171Z,108.50
2018-02-23T06:49:01.855Z,104.20
2018-02-23T06:51:29.495Z,101.87
2018-02-23T06:53:57.209Z,119.43
2018-02-23T06:56:24.840Z,109.13
2018-02-23T06:58:53.034Z,107.70
2018-02-23T07:01:20.728Z,107.20
2018-02-23T07:03:48.387Z,99.67
2018-02-23T07:06:16.061Z,100.73
2018-02-23T07:08:43.756Z,103.70
2018-02-23T07:11:11.411Z,101.87
2018-02-23T07:13:39.057Z,96.53
2018-02-23T07:16:06.748Z,103.77
2018-02-23T07:18:34.380Z,98.73
2018-02-23T07:21:02.044Z,88.57
2018-02-23T07:23:29.755Z,100.73
2018-02-23T07:28:36.541Z,101.93
2018-02-23T07:31:04.174Z,98.80
2018-02-23T07:33:31.826Z,87.43
2018-02-23T07:35:59.523Z,95.23
2018-02-23T07:38:27.153Z,89.17
2018-02-23T07:40:54.797Z,90.20
2018-02-23T07:43:22.513Z,94.77
2018-02-23T07:45:50.162Z,91.60
2018-02-23T07:48:17.803Z,89.40
2018-02-23T07:50:45.994Z,85.57
2018-02-23T07:53:13.575Z,94.47
2018-02-23T07:55:41.208Z,86.10
2018-02-23T07:58:08.910Z,98.07
2018-02-23T08:00:36.561Z,78.23
2018-02-23T08:03:04.209Z,95.87
2018-02-23T08:05:31.896Z,93.50
2018-02-23T08:07:59.540Z,78.50
2018-02-23T08:10:27.186Z,90.27
2018-02-23T08:12:54.881Z,77.87
2018-02-23T08:15:22.527Z,82.07
2018-02-23T08:17:50.179Z,88.73
2018-02-23T08:20:17.887Z,87.23
2018-02-23T08:22:45.518Z,85.30
2018-02-23T08:25:13.158Z,84.33
2018-02-23T08:27:40.859Z,88.90
2018-02-23T08:30:08.493Z,86.00
2018-02-23T08:32:36.567Z,89.13
2018-02-23T08:35:04.260Z,88.87
2018-02-23T08:37:31.930Z,82.63
2018-02-23T08:39:59.984Z,66.40
2018-02-23T08:42:27.647Z,79.17
2018-02-23T08:44:55.282Z,80.10
2018-02-23T08:47:22.916Z,77.47
2018-02-23T08:49:50.609Z,74.53
2018-02-23T08:54:57.402Z,87.60
2018-02-23T08:57:25.040Z,78.77
2018-02-23T08:59:52.686Z,67.80
2018-02-23T09:02:20.373Z,75.37
2018-02-23T09:04:48.019Z,67.17
2018-02-23T09:07:15.664Z,75.00
2018-02-23T09:09:43.343Z,69.97
2018-02-23T09:12:11.005Z,81.60
2018-02-23T09:14:38.628Z,84.50
2018-02-23T09:17:06.324Z,91.30
2018-02-23T09:19:33.975Z,86.03
2018-02-23T09:22:01.595Z,78.67
2018-02-23T09:24:29.280Z,75.27
2018-02-23T09:26:56.912Z,72.17
2018-02-23T09:29:24.556Z,77.57
2018-02-23T09:31:52.258Z,65.10
2018-02-23T09:37:06.342Z,68.85
2018-02-23T09:39:33.969Z,65.70
2018-02-23T09:42:02.078Z,69.97
2018-02-23T09:44:29.773Z,67.77
2018-02-23T09:46:57.401Z,70.23
2018-02-23T09:49:27.927Z,76.33
2018-02-23T09:51:55.616Z,69.17
2018-02-23T09:54:23.239Z,73.13
2018-02-23T09:56:50.868Z,68.83
2018-02-23T09:59:18.559Z,64.57
2018-02-23T10:01:46.172Z,65.50
2018-02-23T10:04:13.799Z,64.77
2018-02-23T10:06:41.479Z,58.97
2018-02-23T10:09:09.115Z,54.13
2018-02-23T10:11:36.733Z,64.87
2018-02-23T10:14:04.413Z,61.10
2018-02-23T10:16:32.040Z,62.53
2018-02-23T10:18:59.674Z,52.20
2018-02-23T10:21:27.369Z,51.63
2018-02-23T10:23:54.992Z,54.83
2018-02-23T10:26:22.623Z,52.20
2018-02-23T10:28:50.304Z,53.63
2018-02-23T10:31:21.208Z,61.73
2018-02-23T10:33:48.826Z,54.60
2018-02-23T10:36:16.538Z,68.53
2018-02-23T10:38:44.182Z,64.93
2018-02-23T10:41:11.795Z,66.67
2018-02-23T10:43:39.466Z,64.27
2018-02-23T10:46:07.111Z,61.00
2018-02-23T10:51:13.879Z,74.22
2018-02-23T10:53:41.513Z,69.63
2018-02-23T10:56:09.142Z,62.40
2018-02-23T10:58:36.846Z,71.47
2018-02-23T11:01:04.463Z,67.43
2018-02-23T11:03:33.489Z,66.30
2018-02-23T11:06:01.097Z,58.27
2018-02-23T11:08:28.964Z,61.67
2018-02-23T11:10:56.590Z,62.80
2018-02-23T11:13:24.265Z,63.93
2018-02-23T11:15:51.896Z,55.03
2018-02-23T11:18:19.515Z,63.40
2018-02-23T11:20:47.210Z,59.57
2018-02-23T11:23:14.839Z,54.77
2018-02-23T11:25:42.467Z,56.97
2018-02-23T11:28:10.192Z,61.27
2018-02-23T11:30:38.639Z,62.17
2018-02-23T11:33:06.262Z,58.90
2018-02-23T11:35:33.975Z,61.17
2018-02-23T11:38:01.571Z,58.27
2018-02-23T11:40:29.197Z,59.90
2018-02-23T11:42:56.887Z,53.53
2018-02-23T11:45:24.491Z,61.10
2018-02-23T11:47:52.119Z,57.33
2018-02-23T11:50:19.824Z,56.60
2018-02-23T11:52:47.437Z,55.93
2018-02-23T11:55:17.838Z,55.37
2018-02-23T11:57:44.602Z,50.10
2018-02-23T12:00:12.221Z,56.13
2018-02-23T12:02:39.849Z,55.47
2018-02-23T12:05:07.534Z,51.70
2018-02-23T12:07:35.154Z,52.83
2018-02-23T12:10:02.782Z,53.90
2018-02-23T12:12:30.463Z,53.60
2018-02-23T12:14:58.089Z,45.77
2018-02-23T12:20:04.851Z,52.28
2018-02-23T12:22:32.472Z,49.87
2018-02-23T12:25:00.094Z,50.47
2018-02-23T12:27:27.779Z,50.53
2018-02-23T12:29:55.417Z,42.37
2018-02-23T12:32:23.036Z,52.87
2018-02-23T12:34:50.709Z,48.77
2018-02-23T12:37:18.329Z,46.87
2018-02-23T12:39:45.953Z,51.83
2018-02-23T12:42:13.645Z,53.13
2018-02-23T12:44:41.258Z,48.57
2018-02-23T12:47:08.880Z,51.77
2018-02-23T12:49:36.559Z,54.50
2018-02-23T12:52:04.188Z,50.23
2018-02-23T12:54:31.805Z,49.93
2018-02-23T12:56:59.491Z,36.80
2018-02-23T12:59:27.115Z,51.93
2018-02-23T13:01:54.735Z,53.67
2018-02-23T13:04:22.405Z,49.50
2018-02-23T13:06:50.032Z,45.57
2018-02-23T13:09:17.651Z,42.23
2018-02-23T13:11:45.322Z,43.33
2018-02-23T13:14:12.945Z,47.30
2018-02-23T13:16:40.561Z,44.17
2018-02-23T13:19:08.241Z,46.60
2018-02-23T13:21:35.864Z,46.70
2018-02-23T13:24:03.516Z,45.63
2018-02-23T13:26:31.208Z,41.23
2018-02-23T13:28:58.825Z,47.27
2018-02-23T13:31:26.451Z,45.17
2018-02-23T13:33:54.181Z,49.30
2018-02-23T13:39:00.986Z,48.33
2018-02-23T13:41:34.164Z,46.80
2018-02-23T13:44:01.840Z,45.23
2018-02-23T13:46:29.460Z,46.40
2018-02-23T13:48:57.085Z,45.77
2018-02-23T13:51:24.777Z,49.50
2018-02-23T13:53:52.401Z,50.77
2018-02-23T13:56:20.026Z,46.30
2018-02-23T13:58:47.702Z,48.90
2018-02-23T14:01:15.324Z,54.40
2018-02-23T14:03:42.949Z,52.33
2018-02-23T14:06:10.620Z,54.57
2018-02-23T14:08:38.243Z,49.40
2018-02-23T14:11:05.861Z,49.60
2018-02-23T14:13:33.544Z,48.37
2018-02-23T14:16:01.172Z,42.17
2018-02-23T14:18:28.796Z,45.03
2018-02-23T14:20:56.500Z,45.30
2018-02-23T14:23:24.141Z,39.67
2018-02-23T14:25:51.772Z,52.30
2018-02-23T14:28:19.457Z,54.07
2018-02-23T14:30:47.129Z,50.57
2018-02-23T14:33:14.756Z,53.43
2018-02-23T14:35:42.422Z,45.13
2018-02-23T14:38:10.061Z,48.03
2018-02-23T14:40:37.682Z,46.53
2018-02-23T14:43:05.367Z,54.17
2018-02-23T14:45:32.997Z,55.43
2018-02-23T14:48:00.617Z,52.13
2018-02-23T14:50:40.084Z,50.73
2018-02-23T14:53:07.709Z,49.33
2018-02-23T14:55:35.335Z,53.60
2018-02-23T14:58:03.017Z,52.70
2018-02-23T15:00:30.643Z,54.87
2018-02-23T15:05:37.422Z,60.88
2018-02-23T15:08:05.037Z,56.63
2018-02-23T15:10:34.549Z,57.17
2018-02-23T15:13:00.347Z,46.50
2018-02-23T15:15:29.533Z,42.90
2018-02-23T15:17:57.158Z,51.13
2018-02-23T15:20:24.840Z,52.67
2018-02-23T15:22:52.472Z,52.60
2018-02-23T15:25:20.118Z,56.20
2018-02-23T15:27:47.781Z,53.90
2018-02-23T15:30:27.208Z,57.10
2018-02-23T15:32:54.891Z,58.07
2018-02-23T15:35:22.533Z,61.10
2018-02-23T15:37:50.164Z,73.53
2018-02-23T15:40:17.857Z,62.00
2018-02-23T15:42:45.517Z,63.83
2018-02-23T15:45:13.147Z,59.13
2018-02-23T15:47:43.792Z,58.40
2018-02-23T15:52:52.076Z,67.50
2018-02-23T15:55:19.690Z,58.77
2018-02-23T16:00:27.928Z,71.70
2018-02-23T16:02:55.549Z,65.63
2018-02-23T16:05:23.207Z,64.73
2018-02-23T16:07:50.861Z,60.30
2018-02-23T16:10:18.480Z,58.50
2018-02-23T16:12:46.507Z,63.30
2018-02-23T16:15:14.106Z,67.53
2018-02-23T16:17:41.747Z,70.10
2018-02-23T16:20:09.384Z,66.20
2018-02-23T16:22:37.059Z,61.50
2018-02-23T16:25:04.697Z,72.93
2018-02-23T16:27:32.324Z,72.87
2018-02-23T16:30:00.718Z,64.37
2018-02-23T16:32:28.240Z,72.93
2018-02-23T16:34:55.870Z,65.97
2018-02-23T16:37:23.562Z,66.87
2018-02-23T16:39:51.182Z,66.13
2018-02-23T16:42:18.828Z,76.83
2018-02-23T16:44:47.089Z,75.60
2018-02-23T16:47:14.714Z,77.07
2018-02-23T16:49:42.382Z,79.63
2018-02-23T16:52:10.073Z,77.10
2018-02-23T16:54:37.718Z,80.13
2018-02-23T16:57:05.346Z,69.87
2018-02-23T17:02:00.676Z,76.17
2018-02-23T17:04:28.320Z,74.23
2018-02-23T17:06:56.007Z,68.77
2018-02-23T17:09:23.659Z,71.77
2018-02-23T17:11:51.295Z,52.83
2018-02-23T17:14:19.022Z,75.33
2018-02-23T17:16:46.702Z,79.60
2018-02-23T17:19:14.311Z,77.60
2018-02-23T17:24:21.104Z,83.82
2018-02-23T17:26:48.812Z,78.60
2018-02-23T17:29:16.451Z,75.73
2018-02-23T17:31:44.100Z,84.43
2018-02-23T17:34:11.794Z,64.03
2018-02-23T17:36:39.432Z,84.67
2018-02-23T17:39:07.070Z,82.57
2018-02-23T17:41:34.786Z,78.07
2018-02-23T17:44:02.428Z,85.03
2018-02-23T17:46:30.071Z,86.20
2018-02-23T17:48:57.788Z,86.70
2018-02-23T17:51:27.395Z,76.57
2018-02-23T17:53:55.048Z,68.50
2018-02-23T17:56:22.737Z,59.27
2018-02-23T17:58:50.370Z,81.70
2018-02-23T18:01:18.018Z,84.97
2018-02-23T18:03:45.715Z,82.47
2018-02-23T18:06:13.364Z,81.17
2018-02-23T18:08:41.014Z,69.30
2018-02-23T18:11:08.723Z,88.33
2018-02-23T18:13:36.543Z,85.03
2018-02-23T18:16:04.011Z,85.60
2018-02-23T18:18:32.598Z,84.37
2018-02-23T18:21:01.786Z,89.70
2018-02-23T18:23:29.432Z,79.03
2018-02-23T18:25:57.118Z,84.77
2018-02-23T18:28:24.758Z,89.03
2018-02-23T18:30:52.421Z,81.50
2018-02-23T18:33:20.106Z,80.73
2018-02-23T18:35:47.757Z,83.10
2018-02-23T18:40:54.560Z,95.28
2018-02-23T18:43:22.200Z,84.70
2018-02-23T18:45:49.847Z,85.53
2018-02-23T18:48:17.534Z,93.93
2018-02-23T18:50:45.178Z,82.80
2018-02-23T18:53:12.826Z,84.80
2018-02-23T18:55:40.521Z,91.47
2018-02-23T18:58:08.148Z,87.17
2018-02-23T19:00:35.807Z,80.00
2018-02-23T19:03:03.524Z,87.73
2018-02-23T19:05:31.166Z,89.47
2018-02-23T19:07:58.811Z,92.63
2018-02-23T19:10:26.502Z,87.83
2018-02-23T19:12:54.130Z,87.43
2018-02-23T19:15:21.780Z,84.10
2018-02-23T19:17:49.514Z,94.97
2018-02-23T19:20:17.150Z,87.53
2018-02-23T19:22:44.782Z,98.13
2018-02-23T19:25:12.493Z,94.07
2018-02-23T19:27:40.138Z,91.53
2018-02-23T19:30:07.794Z,96.83
2018-02-23T19:32:35.478Z,97.87
2018-02-23T19:35:04.847Z,84.23
2018-02-23T19:37:30.750Z,102.57
2018-02-23T19:39:58.455Z,84.20
2018-02-23T19:42:26.106Z,90.93
2018-02-23T19:44:53.747Z,89.87
2018-02-23T19:47:21.426Z,85.97
2018-02-23T19:49:49.171Z,92.80
2018-02-23T19:52:16.740Z,94.23
2018-02-23T19:54:44.451Z,87.27
2018-02-23T19:57:12.124Z,90.97
2018-02-23T19:59:39.742Z,84.60
2018-02-23T20:04:46.544Z,103.18
2018-02-23T20:07:14.244Z,92.37
2018-02-23T20:09:42.084Z,89.17
2018-02-23T20:12:09.728Z,88.93
2018-02-23T20:14:37.433Z,97.80
2018-02-23T20:17:05.081Z,92.03
2018-02-23T20:19:32.733Z,94.47
2018-02-23T20:22:00.454Z,91.33
2018-02-23T20:24:28.114Z,88.47
2018-02-23T20:26:55.765Z,89.53
2018-02-23T20:29:23.463Z,85.70
2018-02-23T20:31:51.182Z,91.17
2018-02-23T20:34:18.906Z,94.07
2018-02-23T20:36:46.613Z,92.17
2018-02-23T20:39:14.252Z,100.23
2018-02-23T20:41:41.907Z,95.43
2018-02-23T20:44:09.603Z,84.13
2018-02-23T20:49:16.082Z,98.78
2018-02-23T20:54:24.509Z,103.78
2018-02-23T20:56:52.192Z,95.23
2018-02-23T20:59:20.322Z,85.20
2018-02-23T21:01:49.606Z,97.07
2018-02-23T21:04:16.098Z,87.07
2018-02-23T21:06:43.765Z,98.43
2018-02-23T21:09:11.503Z,89.33
2018-02-23T21:11:39.255Z,102.07
2018-02-23T21:14:06.889Z,87.70
2018-02-23T21:16:34.634Z,93.47
2018-02-23T21:19:03.874Z,94.17
2018-02-23T21:24:10.308Z,95.30
2018-02-23T21:26:37.944Z,95.53
2018-02-23T21:29:05.584Z,95.57
2018-02-23T21:31:33.468Z,92.43
2018-02-23T21:34:01.129Z,88.63
2018-02-23T21:36:28.772Z,94.23
2018-02-23T21:38:56.456Z,95.10
2018-02-23T21:41:24.103Z,100.43
2018-02-23T21:43:51.711Z,97.50
2018-02-23T21:46:19.421Z,106.33
2018-02-23T21:48:47.056Z,100.40
2018-02-23T21:51:14.692Z,91.83
2018-02-23T21:53:42.399Z,88.70
2018-02-23T21:56:11.859Z,93.50
2018-02-23T21:58:39.506Z,97.43
2018-02-23T22:01:07.196Z,98.83
2018-02-23T22:03:34.822Z,90.87
2018-02-23T22:06:02.461Z,97.20
2018-02-23T22:08:30.356Z,88.60
2018-02-23T22:10:57.936Z,96.10
2018-02-23T22:13:25.580Z,96.23
2018-02-23T22:15:53.268Z,97.20
2018-02-23T22:18:20.968Z,94.23
2018-02-23T22:20:48.668Z,100.93
2018-02-23T22:23:16.280Z,90.53
2018-02-23T22:25:43.979Z,95.27
2018-02-23T22:28:11.620Z,95.23
2018-02-23T22:30:39.252Z,89.60
2018-02-23T22:33:06.932Z,92.23
2018-02-23T22:35:34.563Z,94.10
2018-02-23T22:38:02.258Z,99.13
2018-02-23T22:40:29.912Z,94.17
2018-02-23T22:45:36.715Z,107.25
2018-02-23T22:48:04.387Z,102.00
2018-02-23T22:50:32.017Z,99.93
2018-02-23T22:52:59.700Z,90.67
2018-02-23T22:55:27.330Z,95.33
2018-02-23T22:57:54.972Z,91.50
2018-02-23T23:00:22.666Z,106.13
2018-02-23T23:02:50.351Z,104.43
2018-02-23T23:05:18.086Z,109.03
2018-02-23T23:07:46.251Z,98.30
2018-02-23T23:10:14.071Z,104.40
2018-02-23T23:12:41.707Z,98.30
2018-02-23T23:15:09.374Z,93.10
2018-02-23T23:17:37.056Z,99.43
2018-02-23T23:20:04.699Z,97.43
2018-02-23T23:22:32.333Z,94.10
2018-02-23T23:25:00.020Z,96.23
2018-02-23T23:27:27.661Z,97.77
2018-02-23T23:29:57.509Z,99.93
2018-02-23T23:32:25.144Z,101.63
2018-02-23T23:34:52.806Z,91.23
2018-02-23T23:37:20.436Z,109.17
2018-02-23T23:39:48.129Z,98.70
2018-02-23T23:42:15.761Z,95.67
2018-02-23T23:44:43.407Z,102.10
2018-02-23T23:47:11.114Z,103.53
2018-02-23T23:49:38.733Z,99.30
2018-02-23T23:52:06.387Z,102.13
2018-02-23T23:57:16.839Z,110.55
2018-02-23T23:59:44.859Z,103.60
